Time;durP1;ratioP1;P1;durP2;ratioP2;P2;SDS_P1;SDS_P2;PMS_P1;PMS_P2;Temp;Humidity;BMP_temperature;BMP_pressure;BME280_temperature;BME280_humidity;BME280_pressure;Samples;Min_cycle;Max_cycle;Signal;HPM_P1;HPM_P2
2023/07/08 00:01:20;;;;;;;8.60;4.20;;;23.70;99.90;;;;;;5053992;28;20495;-73
2023/07/08 00:03:47;;;;;;;6.85;3.83;;;23.70;99.90;;;;;;5075607;28;20723;-72
2023/07/08 00:06:28;;;;;;;6.20;4.30;;;23.70;99.90;;;;;;5066341;28;20450;-73
2023/07/08 00:08:55;;;;;;;8.77;4.20;;;23.70;99.90;;;;;;5067107;28;20940;-73
2023/07/08 00:11:22;;;;;;;6.63;4.18;;;23.80;99.90;;;;;;5071199;28;20779;-72
2023/07/08 00:13:49;;;;;;;6.85;4.00;;;23.80;99.90;;;;;;5073553;28;20476;-73
2023/07/08 00:16:18;;;;;;;7.40;4.45;;;23.80;99.90;;;;;;5074476;28;20412;-73
2023/07/08 00:18:46;;;;;;;5.37;3.90;;;23.80;99.90;;;;;;5063517;28;20466;-73
2023/07/08 00:21:17;;;;;;;7.47;4.43;;;23.80;99.90;;;;;;5056547;28;20816;-73
2023/07/08 00:23:51;;;;;;;7.95;4.30;;;23.80;99.90;;;;;;5066069;28;20542;-73
2023/07/08 00:26:28;;;;;;;6.07;4.05;;;23.70;99.90;;;;;;5078510;28;20458;-73
2023/07/08 00:28:55;;;;;;;6.18;3.95;;;23.70;99.90;;;;;;5072645;28;20523;-73
2023/07/08 00:31:25;;;;;;;6.45;3.90;;;23.80;99.90;;;;;;5071886;28;20540;-73
2023/07/08 00:33:56;;;;;;;7.18;4.00;;;23.80;99.90;;;;;;5072831;28;20941;-73
2023/07/08 00:36:25;;;;;;;5.28;3.63;;;23.80;99.90;;;;;;5070573;28;20937;-73
2023/07/08 00:38:51;;;;;;;4.85;3.53;;;23.80;99.90;;;;;;5072213;28;20419;-73
2023/07/08 00:41:29;;;;;;;6.53;3.78;;;23.80;99.90;;;;;;5072343;28;20845;-73
2023/07/08 00:43:58;;;;;;;5.75;3.60;;;23.80;99.90;;;;;;5071956;28;20826;-73
2023/07/08 00:46:29;;;;;;;4.45;3.53;;;23.70;99.90;;;;;;5105283;27;20415;-73
2023/07/08 00:49:34;;;;;;;6.00;3.55;;;23.80;99.90;;;;;;5070723;28;20909;-73
2023/07/08 00:52:25;;;;;;;4.75;3.63;;;23.80;99.90;;;;;;5074752;28;20402;-73
2023/07/08 00:54:59;;;;;;;5.43;3.80;;;23.60;99.90;;;;;;5071140;28;20456;-73
2023/07/08 00:57:32;;;;;;;5.68;3.67;;;23.60;99.90;;;;;;5079603;28;20423;-73
2023/07/08 01:00:15;;;;;;;7.22;3.78;;;23.60;99.90;;;;;;5097473;27;20415;-73
2023/07/08 01:03:00;;;;;;;8.65;4.13;;;23.60;99.90;;;;;;5068804;28;21456;-72
2023/07/08 01:05:30;;;;;;;5.30;3.58;;;23.60;99.90;;;;;;5088331;27;20417;-73
2023/07/08 01:08:03;;;;;;;5.37;3.90;;;23.60;99.90;;;;;;5098667;27;20412;-73
2023/07/08 01:10:43;;;;;;;5.30;3.60;;;23.50;99.90;;;;;;5076920;28;20994;-73
2023/07/08 01:13:14;;;;;;;5.70;3.60;;;23.50;99.90;;;;;;5074332;28;20408;-73
2023/07/08 01:15:46;;;;;;;5.55;3.83;;;23.50;99.90;;;;;;5070122;28;20415;-73
2023/07/08 01:18:16;;;;;;;7.28;3.75;;;23.50;99.90;;;;;;5071133;28;20420;-73
2023/07/08 01:20:43;;;;;;;5.75;3.33;;;23.50;99.90;;;;;;5099879;27;20495;-72
2023/07/08 01:23:11;;;;;;;5.95;3.55;;;23.60;99.90;;;;;;5072353;28;21062;-73
2023/07/08 01:25:38;;;;;;;6.20;3.40;;;23.60;99.90;;;;;;5059891;28;20416;-73
2023/07/08 01:28:05;;;;;;;6.28;3.50;;;23.60;99.90;;;;;;5076050;28;20407;-73
2023/07/08 01:30:32;;;;;;;4.40;3.47;;;23.60;99.90;;;;;;5073100;28;20448;-73
2023/07/08 01:33:07;;;;;;;7.22;3.63;;;23.60;99.90;;;;;;5069424;28;20406;-73
2023/07/08 01:35:34;;;;;;;5.20;3.30;;;23.60;99.90;;;;;;5069577;28;22163;-73
2023/07/08 01:38:05;;;;;;;5.67;3.23;;;23.60;99.90;;;;;;5068244;28;20400;-73
2023/07/08 01:40:38;;;;;;;4.85;3.03;;;23.60;99.90;;;;;;5072512;28;20439;-73
2023/07/08 01:43:06;;;;;;;4.10;3.10;;;23.70;99.90;;;;;;5071210;28;20803;-73
2023/07/08 01:45:39;;;;;;;5.10;3.05;;;23.70;99.90;;;;;;5096657;27;20416;-73
2023/07/08 01:48:19;;;;;;;3.97;3.22;;;23.80;99.90;;;;;;5071676;28;20410;-73
2023/07/08 01:51:01;;;;;;;5.20;3.40;;;23.80;99.90;;;;;;5071508;28;20418;-73
2023/07/08 01:53:37;;;;;;;5.97;3.50;;;23.90;99.90;;;;;;5066732;28;20404;-73
2023/07/08 01:56:06;;;;;;;5.78;3.45;;;23.90;99.90;;;;;;5071053;28;20902;-73
2023/07/08 01:58:32;;;;;;;6.10;3.25;;;23.90;99.90;;;;;;5079653;28;20411;-73
2023/07/08 02:01:00;;;;;;;4.68;3.50;;;24.00;99.90;;;;;;5070021;28;21067;-73
2023/07/08 02:03:27;;;;;;;5.32;3.22;;;24.00;99.90;;;;;;5077421;28;20427;-73
2023/07/08 02:05:54;;;;;;;6.88;3.42;;;24.00;99.90;;;;;;5070706;28;20416;-73
2023/07/08 02:08:21;;;;;;;5.07;3.40;;;24.10;99.90;;;;;;5069277;28;20454;-73
2023/07/08 02:10:54;;;;;;;4.63;3.20;;;24.10;99.90;;;;;;5074609;28;20405;-73
2023/07/08 02:13:22;;;;;;;6.45;3.05;;;24.10;99.90;;;;;;5077893;28;20410;-73
2023/07/08 02:15:50;;;;;;;4.97;3.00;;;24.10;99.90;;;;;;5074423;28;20950;-73
2023/07/08 02:18:18;;;;;;;3.80;3.17;;;24.10;99.90;;;;;;5088415;27;20447;-73
2023/07/08 02:20:46;;;;;;;5.35;3.17;;;24.10;99.90;;;;;;5065952;28;20418;-73
2023/07/08 02:23:14;;;;;;;4.03;2.78;;;24.10;99.90;;;;;;5077866;28;21277;-73
2023/07/08 02:25:40;;;;;;;4.93;3.00;;;24.20;99.90;;;;;;5070450;28;20418;-72
2023/07/08 02:28:06;;;;;;;4.25;2.97;;;24.20;99.90;;;;;;5069824;28;20792;-73
2023/07/08 02:30:32;;;;;;;3.90;2.60;;;24.20;99.90;;;;;;5069717;28;20411;-73
2023/07/08 02:32:59;;;;;;;5.00;2.90;;;24.20;99.90;;;;;;5072278;28;20438;-73
2023/07/08 02:35:30;;;;;;;4.63;2.80;;;24.20;99.90;;;;;;5083804;27;20418;-73
2023/07/08 02:37:58;;;;;;;9.33;3.17;;;24.10;99.90;;;;;;5100467;27;20423;-72
2023/07/08 02:40:26;;;;;;;5.07;2.65;;;24.10;99.90;;;;;;5056075;28;20749;-73
2023/07/08 02:42:52;;;;;;;5.30;2.67;;;24.00;99.90;;;;;;5056571;28;20411;-73
2023/07/08 02:45:19;;;;;;;4.97;2.60;;;24.00;99.90;;;;;;5067891;28;20477;-73
2023/07/08 02:47:45;;;;;;;6.45;3.20;;;24.00;99.90;;;;;;5066607;28;20813;-73
2023/07/08 02:50:13;;;;;;;5.80;2.80;;;24.00;99.90;;;;;;5066028;28;20415;-73
2023/07/08 02:52:39;;;;;;;5.45;2.65;;;23.90;99.90;;;;;;5069392;28;20749;-73
2023/07/08 02:55:06;;;;;;;4.32;2.60;;;23.90;99.90;;;;;;5065819;28;20415;-73
2023/07/08 02:57:32;;;;;;;6.18;2.53;;;23.80;99.90;;;;;;5075851;28;20999;-73
2023/07/08 02:59:59;;;;;;;6.55;2.80;;;23.80;99.90;;;;;;5072682;28;20445;-73
2023/07/08 03:02:26;;;;;;;5.60;2.47;;;23.80;99.90;;;;;;5071635;28;20418;-73
2023/07/08 03:04:54;;;;;;;5.45;2.80;;;23.70;99.90;;;;;;5069999;28;20446;-73
2023/07/08 03:07:20;;;;;;;5.47;2.70;;;23.70;99.90;;;;;;5072991;28;20403;-73
2023/07/08 03:09:46;;;;;;;6.30;2.60;;;23.70;99.90;;;;;;5071831;28;20419;-73
2023/07/08 03:12:12;;;;;;;5.82;2.78;;;23.70;99.90;;;;;;5065125;28;20884;-73
2023/07/08 03:14:39;;;;;;;4.03;2.40;;;23.70;99.90;;;;;;5097114;27;21000;-73
2023/07/08 03:17:05;;;;;;;3.92;2.70;;;23.70;99.90;;;;;;5064651;28;20517;-74
2023/07/08 03:19:32;;;;;;;3.28;2.67;;;23.70;99.90;;;;;;5067697;28;20515;-73
2023/07/08 03:21:58;;;;;;;3.70;2.50;;;23.70;99.90;;;;;;5072826;28;20917;-73
2023/07/08 03:24:25;;;;;;;3.75;2.55;;;23.80;99.90;;;;;;5066594;28;20486;-73
2023/07/08 03:26:54;;;;;;;4.10;3.00;;;23.80;99.90;;;;;;5067772;28;20422;-73
2023/07/08 03:29:21;;;;;;;4.43;2.65;;;23.80;99.90;;;;;;5074510;28;20572;-72
2023/07/08 03:31:48;;;;;;;5.40;2.78;;;23.80;99.90;;;;;;5051781;28;20416;-73
2023/07/08 03:34:16;;;;;;;3.95;2.70;;;23.80;99.90;;;;;;5064968;28;20431;-72
2023/07/08 03:36:51;;;;;;;3.83;2.70;;;23.80;99.90;;;;;;5069230;28;20841;-72
2023/07/08 03:39:23;;;;;;;5.03;2.78;;;23.80;99.90;;;;;;5062965;28;20409;-72
2023/07/08 03:41:51;;;;;;;5.35;2.60;;;23.90;99.90;;;;;;5065370;28;20422;-73
2023/07/08 03:44:18;;;;;;;5.22;2.70;;;23.90;99.90;;;;;;5070215;28;20417;-72
2023/07/08 03:46:47;;;;;;;3.15;2.58;;;24.00;99.90;;;;;;5068781;28;20397;-73
2023/07/08 03:49:14;;;;;;;4.38;2.60;;;23.90;99.90;;;;;;5076247;28;20418;-73
2023/07/08 03:51:42;;;;;;;3.80;2.60;;;23.90;99.90;;;;;;5064777;28;20414;-72
2023/07/08 03:54:15;;;;;;;6.72;2.88;;;23.90;99.90;;;;;;5070452;28;20402;-73
2023/07/08 03:56:41;;;;;;;5.07;2.50;;;23.90;99.90;;;;;;5071985;28;20417;-73
2023/07/08 03:59:08;;;;;;;4.13;2.70;;;23.90;99.90;;;;;;5066638;28;20413;-72
2023/07/08 04:01:34;;;;;;;4.57;2.50;;;23.90;99.90;;;;;;5064382;28;20442;-72
2023/07/08 04:04:01;;;;;;;3.90;2.60;;;23.90;99.90;;;;;;5068429;28;20425;-72
2023/07/08 04:06:31;;;;;;;4.47;2.77;;;23.90;99.90;;;;;;5072177;28;20912;-72
2023/07/08 04:08:57;;;;;;;4.88;2.60;;;23.90;99.90;;;;;;5068795;28;20402;-72
2023/07/08 04:11:24;;;;;;;5.03;2.75;;;23.90;99.90;;;;;;5078695;28;20994;-72
2023/07/08 04:13:51;;;;;;;4.18;2.60;;;23.90;99.90;;;;;;5065709;28;20410;-72
2023/07/08 04:16:28;;;;;;;5.63;2.77;;;23.90;99.90;;;;;;5064970;28;20437;-72
2023/07/08 04:18:55;;;;;;;6.03;2.63;;;24.00;99.90;;;;;;5095853;27;20972;-72
2023/07/08 04:21:27;;;;;;;4.03;2.80;;;24.00;99.90;;;;;;5096684;27;20414;-72
2023/07/08 04:23:53;;;;;;;4.78;2.70;;;24.00;99.90;;;;;;5068974;28;20500;-73
2023/07/08 04:26:20;;;;;;;4.40;2.72;;;24.10;99.90;;;;;;5051247;28;20410;-72
2023/07/08 04:28:47;;;;;;;5.10;2.72;;;24.10;99.90;;;;;;5074796;28;20980;-73
2023/07/08 04:31:13;;;;;;;3.95;2.80;;;24.10;99.90;;;;;;5062299;28;20554;-72
2023/07/08 04:33:39;;;;;;;5.17;2.70;;;24.20;99.90;;;;;;5068552;28;20491;-72
2023/07/08 04:36:13;;;;;;;4.60;2.80;;;24.20;99.90;;;;;;5053460;28;20401;-72
2023/07/08 04:38:42;;;;;;;4.53;2.83;;;24.30;99.90;;;;;;5089655;27;20411;-72
2023/07/08 04:41:08;;;;;;;4.28;2.90;;;24.30;99.90;;;;;;5097350;27;21011;-73
2023/07/08 04:43:34;;;;;;;3.90;2.90;;;24.40;99.90;;;;;;5095987;27;20580;-72
2023/07/08 04:46:00;;;;;;;5.18;3.10;;;24.40;99.90;;;;;;5071335;28;20457;-73
2023/07/08 04:48:27;;;;;;;3.55;2.92;;;24.50;99.90;;;;;;5080117;28;20518;-72
2023/07/08 04:50:54;;;;;;;5.20;3.17;;;24.50;99.90;;;;;;5055156;28;20440;-73
2023/07/08 04:53:21;;;;;;;4.38;3.03;;;24.50;99.90;;;;;;5073930;28;20412;-73
2023/07/08 04:55:55;;;;;;;3.92;2.90;;;24.50;99.90;;;;;;5063272;28;21146;-73
2023/07/08 04:58:21;;;;;;;6.35;3.03;;;24.50;99.90;;;;;;5067908;28;20504;-72
2023/07/08 05:00:48;;;;;;;5.15;3.30;;;24.60;99.90;;;;;;5080959;28;20414;-73
2023/07/08 05:03:14;;;;;;;4.68;3.15;;;24.60;99.90;;;;;;5070766;28;21097;-72
2023/07/08 05:05:40;;;;;;;4.60;3.13;;;24.60;99.90;;;;;;5099487;27;21117;-73
2023/07/08 05:08:08;;;;;;;4.63;3.00;;;24.70;99.90;;;;;;5068373;28;20424;-72
2023/07/08 05:10:35;;;;;;;6.90;3.22;;;24.70;99.90;;;;;;5068544;28;20423;-73
2023/07/08 05:13:01;;;;;;;4.32;3.28;;;24.70;99.90;;;;;;5073162;28;20413;-73
2023/07/08 05:15:27;;;;;;;4.25;3.15;;;24.80;99.90;;;;;;5067227;28;20423;-73
2023/07/08 05:17:54;;;;;;;4.50;3.33;;;24.80;99.90;;;;;;5066310;28;20534;-73
2023/07/08 05:20:20;;;;;;;4.43;3.10;;;24.90;99.90;;;;;;5083589;28;20421;-73
2023/07/08 05:22:47;;;;;;;7.45;3.28;;;24.90;99.90;;;;;;5057720;28;20403;-72
2023/07/08 05:25:14;;;;;;;5.05;3.10;;;24.90;99.90;;;;;;5071062;28;20461;-73
2023/07/08 05:27:40;;;;;;;4.40;3.10;;;25.00;99.90;;;;;;5068625;28;20412;-73
2023/07/08 05:30:13;;;;;;;4.32;3.15;;;25.10;99.90;;;;;;5050787;28;20854;-73
2023/07/08 05:32:40;;;;;;;6.00;3.10;;;25.10;99.90;;;;;;5060653;28;20504;-73
2023/07/08 05:35:07;;;;;;;6.45;3.20;;;25.10;99.90;;;;;;5072124;28;20414;-73
2023/07/08 05:37:34;;;;;;;3.20;2.90;;;25.20;99.90;;;;;;5073861;28;20463;-73
2023/07/08 05:40:04;;;;;;;5.07;3.13;;;25.20;99.90;;;;;;5067389;28;20415;-73
2023/07/08 05:42:30;;;;;;;3.97;3.08;;;25.20;99.90;;;;;;5103338;27;20408;-73
2023/07/08 05:44:56;;;;;;;5.70;3.00;;;25.30;99.90;;;;;;5066122;28;20415;-72
2023/07/08 05:47:23;;;;;;;3.97;3.20;;;25.40;99.90;;;;;;5071285;28;20789;-73
2023/07/08 05:49:49;;;;;;;4.22;2.78;;;25.40;99.90;;;;;;5075128;28;20413;-73
2023/07/08 05:52:15;;;;;;;3.97;3.17;;;25.40;99.90;;;;;;5064793;28;20918;-73
2023/07/08 05:54:43;;;;;;;5.43;3.17;;;25.60;99.90;;;;;;5079377;28;20415;-72
2023/07/08 05:57:11;;;;;;;3.70;3.22;;;25.70;99.90;;;;;;5066824;28;20586;-73
2023/07/08 05:59:42;;;;;;;4.93;3.15;;;25.70;99.90;;;;;;5063203;28;21005;-73
2023/07/08 06:02:12;;;;;;;4.80;3.23;;;25.80;99.90;;;;;;5102372;27;20479;-73
2023/07/08 06:04:40;;;;;;;3.70;2.83;;;25.90;99.90;;;;;;5071635;28;20412;-73
2023/07/08 06:07:06;;;;;;;4.25;3.05;;;25.90;99.90;;;;;;5067146;28;20423;-73
2023/07/08 06:09:33;;;;;;;5.78;3.60;;;26.00;99.90;;;;;;5068718;28;20442;-73
2023/07/08 06:11:59;;;;;;;3.58;3.10;;;26.00;99.90;;;;;;5097655;27;20416;-73
2023/07/08 06:14:26;;;;;;;4.30;2.80;;;26.20;99.90;;;;;;5067046;28;20518;-73
2023/07/08 06:16:54;;;;;;;5.63;3.22;;;26.20;99.90;;;;;;5071065;28;20533;-73
2023/07/08 06:19:21;;;;;;;4.15;3.20;;;26.30;99.90;;;;;;5064791;28;20426;-73
2023/07/08 06:21:47;;;;;;;4.55;3.13;;;26.30;99.90;;;;;;5070984;28;20993;-72
2023/07/08 06:24:13;;;;;;;5.47;3.60;;;26.50;99.90;;;;;;5072688;28;20976;-73
2023/07/08 06:26:40;;;;;;;5.75;3.30;;;26.50;99.90;;;;;;5055198;28;20766;-73
2023/07/08 06:29:06;;;;;;;4.20;3.20;;;26.60;99.90;;;;;;5071426;28;20425;-73
2023/07/08 06:31:33;;;;;;;6.32;3.17;;;26.70;99.90;;;;;;5069295;28;20514;-73
2023/07/08 06:34:00;;;;;;;3.60;2.90;;;26.80;99.90;;;;;;5068084;28;20536;-73
2023/07/08 06:36:27;;;;;;;6.03;3.40;;;26.90;99.90;;;;;;5081298;27;20419;-73
2023/07/08 06:38:53;;;;;;;6.15;3.35;;;26.90;99.90;;;;;;5094376;27;20829;-73
2023/07/08 06:41:19;;;;;;;7.35;3.47;;;27.00;99.90;;;;;;5074598;28;20509;-73
2023/07/08 06:43:45;;;;;;;7.00;3.30;;;27.10;99.90;;;;;;5068276;28;20419;-73
2023/07/08 06:46:12;;;;;;;4.28;3.00;;;27.30;99.90;;;;;;5065554;28;20494;-73
2023/07/08 06:48:38;;;;;;;4.88;3.42;;;27.40;99.90;;;;;;5064295;28;20446;-73
2023/07/08 06:51:05;;;;;;;4.93;3.30;;;27.50;99.90;;;;;;5063478;28;20450;-73
2023/07/08 06:53:31;;;;;;;5.22;3.53;;;27.60;99.90;;;;;;5067912;28;21213;-73
2023/07/08 06:56:01;;;;;;;6.32;3.60;;;27.60;99.90;;;;;;5061277;28;20603;-74
2023/07/08 06:58:28;;;;;;;8.43;3.87;;;27.70;99.90;;;;;;5071717;28;20443;-73
2023/07/08 07:00:55;;;;;;;6.45;3.92;;;28.00;99.90;;;;;;5063980;28;20429;-72
2023/07/08 07:03:21;;;;;;;9.52;4.07;;;28.10;99.90;;;;;;5100068;27;20418;-73
2023/07/08 07:05:48;;;;;;;8.63;3.97;;;28.30;99.90;;;;;;5073849;28;20411;-73
2023/07/08 07:08:14;;;;;;;7.00;3.97;;;28.40;99.90;;;;;;5061744;28;20430;-73
2023/07/08 07:10:43;;;;;;;7.93;3.97;;;28.50;99.90;;;;;;5067636;28;20791;-73
2023/07/08 07:13:10;;;;;;;6.00;3.85;;;28.70;99.90;;;;;;5080847;28;20451;-73
2023/07/08 07:15:36;;;;;;;6.63;3.83;;;28.70;99.90;;;;;;5065470;28;20414;-73
2023/07/08 07:18:03;;;;;;;6.83;4.10;;;28.70;99.90;;;;;;5071484;28;20417;-73
2023/07/08 07:20:29;;;;;;;6.80;4.05;;;28.90;99.90;;;;;;5069007;28;20407;-73
2023/07/08 07:22:56;;;;;;;6.80;3.90;;;29.00;99.90;;;;;;5070340;28;20653;-73
2023/07/08 07:25:22;;;;;;;5.50;3.90;;;29.10;99.90;;;;;;5069425;28;20424;-73
2023/07/08 07:27:49;;;;;;;6.78;4.07;;;29.10;99.90;;;;;;5074551;28;20500;-73
2023/07/08 07:30:16;;;;;;;6.85;4.00;;;29.30;99.90;;;;;;5068774;28;20419;-73
2023/07/08 07:32:45;;;;;;;6.30;3.70;;;29.40;99.90;;;;;;5086953;28;20410;-73
2023/07/08 07:35:14;;;;;;;7.43;4.20;;;29.50;99.90;;;;;;5098683;27;20544;-73
2023/07/08 07:37:44;;;;;;;5.78;4.00;;;29.60;99.90;;;;;;5077311;28;20511;-73
2023/07/08 07:40:15;;;;;;;7.10;4.13;;;29.70;99.90;;;;;;5052015;28;20528;-73
2023/07/08 07:42:44;;;;;;;6.93;4.00;;;29.80;99.90;;;;;;5103455;27;20402;-73
2023/07/08 07:45:12;;;;;;;7.50;4.15;;;29.90;99.90;;;;;;5081847;28;20510;-73
2023/07/08 07:47:39;;;;;;;7.18;3.88;;;30.00;99.90;;;;;;5069661;28;20457;-73
2023/07/08 07:50:08;;;;;;;6.93;4.20;;;30.00;99.90;;;;;;5044857;28;20426;-73
2023/07/08 07:52:35;;;;;;;9.87;4.30;;;30.10;99.90;;;;;;5057604;28;20406;-73
2023/07/08 07:55:03;;;;;;;8.68;4.13;;;30.10;99.90;;;;;;5071543;28;20508;-73
2023/07/08 07:57:29;;;;;;;7.53;4.57;;;30.20;99.90;;;;;;5063791;28;20436;-73
2023/07/08 07:59:55;;;;;;;6.55;4.28;;;30.30;99.90;;;;;;5074107;28;20449;-73
2023/07/08 08:02:21;;;;;;;6.97;4.30;;;30.30;99.90;;;;;;5086932;28;20404;-73
2023/07/08 08:04:48;;;;;;;7.67;4.27;;;30.40;99.90;;;;;;5064948;28;20424;-73
2023/07/08 08:07:14;;;;;;;8.27;4.78;;;30.50;99.90;;;;;;5067836;28;20946;-73
2023/07/08 08:09:40;;;;;;;9.73;4.50;;;30.60;99.90;;;;;;5075913;28;21098;-73
2023/07/08 08:12:10;;;;;;;7.85;4.70;;;30.70;99.90;;;;;;5062367;28;20738;-73
2023/07/08 08:14:37;;;;;;;9.15;4.80;;;30.80;99.90;;;;;;5071022;28;20426;-73
2023/07/08 08:17:04;;;;;;;7.07;4.70;;;30.90;99.90;;;;;;5100817;28;21091;-73
2023/07/08 08:19:31;;;;;;;12.75;4.93;;;31.00;99.90;;;;;;5050033;28;20397;-73
2023/07/08 08:21:57;;;;;;;8.82;5.03;;;31.10;99.90;;;;;;5072228;28;20751;-73
2023/07/08 08:24:23;;;;;;;10.73;5.53;;;31.20;99.90;;;;;;5068151;28;20422;-73
2023/07/08 08:26:50;;;;;;;10.13;5.32;;;31.10;99.90;;;;;;5065015;28;20401;-73
2023/07/08 08:29:16;;;;;;;8.27;5.32;;;31.20;99.90;;;;;;5069966;28;20511;-73
2023/07/08 08:31:42;;;;;;;10.27;5.57;;;31.20;99.90;;;;;;5076634;28;20468;-73
2023/07/08 08:34:08;;;;;;;9.57;5.47;;;31.20;99.90;;;;;;5074185;28;21148;-73
2023/07/08 08:36:34;;;;;;;9.30;5.70;;;31.20;99.90;;;;;;5068581;28;20405;-73
2023/07/08 08:39:01;;;;;;;10.43;5.63;;;31.40;99.90;;;;;;5073192;28;20409;-73
2023/07/08 08:41:37;;;;;;;9.57;5.45;;;31.40;99.90;;;;;;5074739;28;20411;-74
2023/07/08 08:44:07;;;;;;;13.20;6.00;;;31.40;99.90;;;;;;5068597;28;20409;-73
2023/07/08 08:46:52;;;;;;;11.20;6.50;;;31.30;99.90;;;;;;5075545;28;20422;-73
2023/07/08 08:49:27;;;;;;;9.05;5.82;;;31.40;99.90;;;;;;5087632;28;20521;-73
2023/07/08 08:51:55;;;;;;;13.77;6.32;;;31.60;99.90;;;;;;5079295;28;20398;-73
2023/07/08 08:54:21;;;;;;;12.93;6.35;;;31.60;99.90;;;;;;5086107;28;20399;-73
2023/07/08 08:57:40;;;;;;;11.55;5.93;;;31.60;99.90;;;;;;5071086;28;20399;-73
2023/07/08 09:00:16;;;;;;;10.82;6.25;;;31.60;99.90;;;;;;5085331;28;20875;-74
2023/07/08 09:03:09;;;;;;;11.82;5.93;;;31.90;99.90;;;;;;5081816;28;20414;-73
2023/07/08 09:05:35;;;;;;;10.23;6.32;;;31.80;99.90;;;;;;5077174;28;20417;-73
2023/07/08 09:08:11;;;;;;;13.02;6.32;;;31.90;99.90;;;;;;5102767;27;20457;-73
2023/07/08 09:11:00;;;;;;;13.05;6.38;;;31.90;99.90;;;;;;5093222;28;21219;-73
2023/07/08 09:13:34;;;;;;;9.85;6.30;;;31.90;99.90;;;;;;5081790;28;20429;-73
2023/07/08 09:16:34;;;;;;;12.10;6.60;;;32.10;99.90;;;;;;5070614;28;21131;-74
2023/07/08 09:19:25;;;;;;;12.18;6.53;;;32.30;99.90;;;;;;5013508;28;20472;-74
2023/07/08 09:22:20;;;;;;;12.45;6.45;;;32.40;99.90;;;;;;5046190;28;20880;-74
2023/07/08 09:25:03;;;;;;;13.25;6.25;;;32.60;99.90;;;;;;5102384;27;21055;-74
2023/07/08 09:27:29;;;;;;;10.53;6.00;;;32.70;99.90;;;;;;5081998;28;20452;-74
2023/07/08 09:29:56;;;;;;;15.57;6.53;;;32.90;99.90;;;;;;5066569;28;20767;-74
2023/07/08 09:32:26;;;;;;;12.00;5.97;;;33.00;99.90;;;;;;5077581;28;20403;-74
2023/07/08 09:35:19;;;;;;;10.70;6.25;;;33.10;99.90;;;;;;5074940;28;20399;-74
2023/07/08 09:37:49;;;;;;;12.45;6.18;;;33.20;99.90;;;;;;5065145;28;20776;-74
2023/07/08 09:40:32;;;;;;;12.20;6.30;;;33.30;99.90;;;;;;5075943;28;20954;-74
2023/07/08 09:43:14;;;;;;;11.27;6.40;;;33.40;99.90;;;;;;5094924;27;20424;-74
2023/07/08 09:45:50;;;;;;;12.77;6.25;;;33.60;99.90;;;;;;5083002;28;20404;-75
2023/07/08 09:48:32;;;;;;;11.60;5.70;;;33.80;99.90;;;;;;5082203;28;20416;-73
2023/07/08 09:50:59;;;;;;;12.00;5.93;;;33.80;99.90;;;;;;5064683;28;20905;-74
2023/07/08 09:53:27;;;;;;;9.57;5.63;;;33.90;99.90;;;;;;5070704;28;20444;-73
2023/07/08 09:55:58;;;;;;;12.18;6.30;;;34.00;99.90;;;;;;5071047;28;20467;-74
2023/07/08 09:58:31;;;;;;;10.65;6.05;;;34.20;99.90;;;;;;5076072;28;20435;-73
2023/07/08 10:01:11;;;;;;;12.40;6.03;;;34.30;99.90;;;;;;5077267;28;20413;-74
2023/07/08 10:03:38;;;;;;;12.70;5.65;;;34.20;99.90;;;;;;5097162;28;20412;-74
2023/07/08 10:06:17;;;;;;;12.60;5.93;;;34.30;99.90;;;;;;5083890;28;20736;-74
2023/07/08 10:08:45;;;;;;;10.48;5.90;;;34.20;99.90;;;;;;5079533;28;20415;-74
2023/07/08 10:11:27;;;;;;;10.70;5.17;;;34.20;99.90;;;;;;5079471;28;20451;-74
2023/07/08 10:14:30;;;;;;;10.40;5.15;;;34.20;99.90;;;;;;5090098;27;20419;-74
2023/07/08 10:16:56;;;;;;;13.50;5.35;;;34.50;99.90;;;;;;5083146;28;20774;-74
2023/07/08 10:19:23;;;;;;;9.38;4.93;;;34.50;99.90;;;;;;5082321;28;20896;-74
2023/07/08 10:22:04;;;;;;;12.07;5.18;;;34.60;99.90;;;;;;5078753;28;20409;-74
2023/07/08 10:25:10;;;;;;;11.38;5.45;;;34.80;99.90;;;;;;5090882;27;20419;-74
2023/07/08 10:27:54;;;;;;;10.07;5.25;;;34.90;99.90;;;;;;5087474;27;20797;-74
2023/07/08 10:30:30;;;;;;;11.32;5.45;;;35.00;99.90;;;;;;5080312;28;20420;-74
2023/07/08 10:33:53;;;;;;;10.07;5.13;;;34.70;99.90;;;;;;5077239;28;20454;-74
2023/07/08 10:36:31;;;;;;;12.20;4.70;;;34.70;99.90;;;;;;5085539;28;20443;-74
2023/07/08 10:39:37;;;;;;;10.40;5.18;;;34.70;99.90;;;;;;5076415;28;20411;-74
2023/07/08 10:42:27;;;;;;;9.05;4.28;;;34.60;99.90;;;;;;5079262;28;20407;-74
2023/07/08 10:45:16;;;;;;;11.48;4.80;;;34.60;99.90;;;;;;5073633;28;20842;-74
2023/07/08 10:48:23;;;;;;;10.57;5.00;;;34.50;99.90;;;;;;5081551;28;20485;-74
2023/07/08 10:51:15;;;;;;;11.02;5.07;;;34.40;99.90;;;;;;5031094;28;20435;-74
2023/07/08 10:54:32;;;;;;;7.97;4.45;;;34.30;99.90;;;;;;5071619;28;20581;-74
2023/07/08 10:57:38;;;;;;;9.88;5.05;;;34.20;99.90;;;;;;5065422;28;20519;-74
2023/07/08 11:00:35;;;;;;;12.27;4.88;;;34.10;99.90;;;;;;5069471;28;21530;-74
2023/07/08 11:03:42;;;;;;;7.20;4.40;;;34.20;99.90;;;;;;5068892;28;20413;-74
2023/07/08 11:06:22;;;;;;;7.63;4.47;;;34.20;99.90;;;;;;5057682;28;20478;-74
2023/07/08 11:08:59;;;;;;;8.67;4.83;;;34.20;99.90;;;;;;5070336;28;21145;-74
2023/07/08 11:11:47;;;;;;;10.90;5.22;;;34.20;99.90;;;;;;5099327;27;20423;-74
2023/07/08 11:14:24;;;;;;;9.05;5.00;;;34.20;99.90;;;;;;5071854;28;20427;-74
2023/07/08 11:17:09;;;;;;;9.18;4.53;;;34.10;99.90;;;;;;5076293;28;20412;-74
2023/07/08 11:19:45;;;;;;;7.90;4.68;;;34.10;99.90;;;;;;5065693;28;20418;-74
2023/07/08 11:22:14;;;;;;;7.50;4.45;;;34.00;99.90;;;;;;5070355;28;20417;-74
2023/07/08 11:24:48;;;;;;;10.10;4.65;;;33.80;99.90;;;;;;5100466;27;20471;-74
2023/07/08 11:27:36;;;;;;;8.75;4.60;;;33.80;99.90;;;;;;5070081;28;20407;-74
2023/07/08 11:30:14;;;;;;;8.38;4.28;;;33.90;99.90;;;;;;5067548;28;20451;-74
2023/07/08 11:32:47;;;;;;;8.18;5.00;;;33.80;99.90;;;;;;5070540;28;20406;-74
2023/07/08 11:35:46;;;;;;;12.63;4.80;;;33.70;99.90;;;;;;5072941;28;20408;-74
2023/07/08 11:38:18;;;;;;;8.98;4.97;;;33.80;99.90;;;;;;5068150;28;20432;-74
2023/07/08 11:41:16;;;;;;;10.80;5.03;;;33.90;99.90;;;;;;5098985;27;20425;-74
2023/07/08 11:44:03;;;;;;;10.98;5.40;;;33.80;99.90;;;;;;5065622;28;20404;-73
2023/07/08 11:46:34;;;;;;;10.43;5.10;;;33.70;99.90;;;;;;5076214;28;20422;-74
2023/07/08 11:49:12;;;;;;;10.50;4.70;;;33.80;99.90;;;;;;5076167;28;20480;-74
2023/07/08 11:51:44;;;;;;;10.43;5.05;;;33.70;99.90;;;;;;5064576;28;20777;-74
2023/07/08 11:54:29;;;;;;;11.85;5.05;;;33.70;99.90;;;;;;5075786;28;20409;-74
2023/07/08 11:57:04;;;;;;;9.52;4.90;;;33.60;99.90;;;;;;5068962;28;20853;-74
2023/07/08 11:59:38;;;;;;;8.77;4.82;;;33.50;99.90;;;;;;5068870;28;20510;-74
2023/07/08 12:02:19;;;;;;;11.23;5.63;;;33.50;99.90;;;;;;5072425;28;20410;-74
2023/07/08 12:05:15;;;;;;;13.27;5.00;;;33.40;99.90;;;;;;5097702;27;20914;-73
2023/07/08 12:07:58;;;;;;;12.18;4.60;;;33.50;99.90;;;;;;5082089;28;20453;-74
2023/07/08 12:10:49;;;;;;;8.52;4.38;;;33.50;99.90;;;;;;5073515;28;20411;-74
2023/07/08 12:13:22;;;;;;;9.93;4.50;;;33.50;99.90;;;;;;5075301;28;20449;-74
2023/07/08 12:15:49;;;;;;;8.60;4.77;;;33.50;99.90;;;;;;5075583;28;20413;-74
2023/07/08 12:18:31;;;;;;;8.88;4.25;;;33.40;99.90;;;;;;5055405;28;20420;-74
2023/07/08 12:21:02;;;;;;;10.15;4.95;;;33.40;99.90;;;;;;5071990;28;20764;-73
2023/07/08 12:23:30;;;;;;;7.57;4.23;;;33.30;99.90;;;;;;5066676;28;20420;-73
2023/07/08 12:25:57;;;;;;;7.03;4.30;;;33.20;99.90;;;;;;5061884;28;20493;-74
2023/07/08 12:28:25;;;;;;;8.73;4.00;;;33.40;99.90;;;;;;5076684;28;20539;-73
2023/07/08 12:30:54;;;;;;;7.73;4.13;;;33.40;99.40;;;;;;5075000;28;20463;-73
2023/07/08 12:33:34;;;;;;;7.10;3.95;;;33.60;99.90;;;;;;5065832;28;20432;-74
2023/07/08 12:36:03;;;;;;;7.30;4.10;;;33.50;98.50;;;;;;5078631;28;20420;-73
2023/07/08 12:38:40;;;;;;;8.70;3.70;;;33.40;98.80;;;;;;5077699;28;21698;-74
2023/07/08 12:41:22;;;;;;;7.35;3.75;;;33.60;97.70;;;;;;5075378;28;20412;-73
2023/07/08 12:43:50;;;;;;;7.47;3.42;;;33.60;97.90;;;;;;5074739;28;20426;-73
2023/07/08 12:46:20;;;;;;;9.95;4.20;;;33.70;98.50;;;;;;5071989;28;20427;-74
2023/07/08 12:48:47;;;;;;;8.13;3.88;;;33.90;99.20;;;;;;5069714;28;20414;-74
2023/07/08 12:51:21;;;;;;;8.13;4.50;;;34.00;98.80;;;;;;5065597;28;20413;-73
2023/07/08 12:53:48;;;;;;;7.70;3.75;;;34.00;99.30;;;;;;5072014;28;20426;-74
2023/07/08 12:56:15;;;;;;;7.60;4.00;;;33.80;99.10;;;;;;5065563;28;20437;-74
2023/07/08 12:58:55;;;;;;;7.13;4.30;;;33.90;99.20;;;;;;5067575;28;20430;-74
2023/07/08 13:01:28;;;;;;;8.98;4.50;;;33.60;99.10;;;;;;5071258;28;20724;-74
2023/07/08 13:04:04;;;;;;;11.52;4.50;;;33.70;98.60;;;;;;5065973;28;20471;-73
2023/07/08 13:06:34;;;;;;;7.57;4.35;;;33.90;98.70;;;;;;5071800;28;20410;-74
2023/07/08 13:09:37;;;;;;;10.32;4.28;;;34.00;99.10;;;;;;5079455;28;20408;-71
2023/07/08 13:12:24;;;;;;;8.65;4.18;;;33.90;99.50;;;;;;5069642;28;20402;-71